Time;durP1;ratioP1;P1;durP2;ratioP2;P2;SDS_P1;SDS_P2;PMS_P1;PMS_P2;Temp;Humidity;BMP_temperature;BMP_pressure;BME280_temperature;BME280_humidity;BME280_pressure;Samples;Min_cycle;Max_cycle;Signal;HPM_P1;HPM_P2
2021/06/01 00:01:11;;;;;;;;;;;10.70;1.00;;;;;;5027576;28;20334;-65
2021/06/01 00:03:36;;;;;;;;;;;10.70;1.00;;;;;;5028332;28;20014;-66
2021/06/01 00:06:02;;;;;;;;;;;10.70;1.00;;;;;;5028157;28;20347;-66
2021/06/01 00:08:27;;;;;;;;;;;10.70;1.00;;;;;;5028090;28;19910;-66
2021/06/01 00:10:53;;;;;;;;;;;10.60;1.00;;;;;;5027378;28;19921;-65
2021/06/01 00:13:19;;;;;;;;;;;10.60;1.00;;;;;;5027530;28;20008;-66
2021/06/01 00:15:44;;;;;;;;;;;10.60;14.60;;;;;;5028433;28;20008;-65
2021/06/01 00:18:10;;;;;;;;;;;10.50;99.90;;;;;;5030886;28;20322;-66
2021/06/01 00:20:35;;;;;;;;;;;10.50;99.90;;;;;;5031080;28;19999;-66
2021/06/01 00:23:01;;;;;;;;;;;10.40;99.90;;;;;;5031612;28;19913;-66
2021/06/01 00:25:26;;;;;;;;;;;10.40;99.90;;;;;;5032164;28;19999;-65
2021/06/01 00:27:52;;;;;;;;;;;10.30;99.90;;;;;;5012944;28;19913;-66
2021/06/01 00:30:18;;;;;;;;;;;10.30;99.90;;;;;;5031345;28;19913;-66
2021/06/01 00:32:43;;;;;;;;;;;10.30;99.90;;;;;;5031396;28;19913;-65
2021/06/01 00:35:09;;;;;;;;;;;10.30;99.90;;;;;;5031988;28;19929;-66
2021/06/01 00:37:35;;;;;;;;;;;10.20;99.90;;;;;;5031050;28;19913;-66
2021/06/01 00:40:00;;;;;;;;;;;10.20;99.90;;;;;;5030885;28;19920;-66
2021/06/01 00:42:26;;;;;;;;;;;10.30;99.90;;;;;;5031233;28;20350;-65
2021/06/01 00:44:52;;;;;;;;;;;10.30;99.90;;;;;;5031166;28;19916;-66
2021/06/01 00:47:17;;;;;;;;;;;10.20;99.90;;;;;;5031870;28;20030;-65
2021/06/01 00:49:43;;;;;;;;;;;10.20;99.90;;;;;;5030865;28;19962;-66
2021/06/01 00:52:09;;;;;;;;;;;10.20;99.90;;;;;;5031151;28;19914;-66
2021/06/01 00:54:34;;;;;;;;;;;10.20;99.90;;;;;;5031097;28;19917;-65
2021/06/01 00:57:00;;;;;;;;;;;10.20;99.90;;;;;;5031286;28;20008;-66
2021/06/01 00:59:25;;;;;;;;;;;10.20;99.90;;;;;;5029336;28;19916;-66
2021/06/01 01:01:51;;;;;;;;;;;10.10;99.90;;;;;;5031321;28;19921;-66
2021/06/01 01:04:17;;;;;;;;;;;10.10;99.90;;;;;;5031476;28;19980;-66
2021/06/01 01:06:57;;;;;;;;;;;10.00;99.90;;;;;;5030491;28;19944;-66
2021/06/01 01:09:24;;;;;;;;;;;10.00;99.90;;;;;;5030363;28;20358;-66
2021/06/01 01:12:08;;;;;;;;;;;9.90;99.90;;;;;;5027338;28;19924;-65
2021/06/01 01:14:40;;;;;;;;;;;9.90;99.90;;;;;;5027533;28;20155;-65
2021/06/01 01:17:22;;;;;;;;;;;9.90;99.90;;;;;;5031267;28;20262;-65
2021/06/01 01:20:07;;;;;;;;;;;9.90;1.00;;;;;;5030344;28;20282;-65
2021/06/01 01:22:34;;;;;;;;;;;9.80;1.00;;;;;;5030093;28;19940;-65
2021/06/01 01:25:02;;;;;;;;;;;9.80;1.00;;;;;;5031117;28;19967;-65
2021/06/01 01:27:51;;;;;;;;;;;9.80;1.00;;;;;;5030135;28;20290;-66
2021/06/01 01:30:17;;;;;;;;;;;9.80;1.00;;;;;;5029009;28;20004;-65
2021/06/01 01:32:45;;;;;;;;;;;9.70;1.00;;;;;;5030114;28;20433;-65
2021/06/01 01:35:11;;;;;;;;;;;9.70;1.00;;;;;;5031092;28;20270;-66
2021/06/01 01:37:38;;;;;;;;;;;9.70;1.00;;;;;;5029875;28;20703;-65
2021/06/01 01:40:05;;;;;;;;;;;9.60;3.00;;;;;;5030063;28;20485;-65
2021/06/01 01:42:39;;;;;;;;;;;9.60;99.90;;;;;;5029651;28;20095;-65
2021/06/01 01:45:07;;;;;;;;;;;9.50;99.90;;;;;;5030853;28;19910;-65
2021/06/01 01:50:14;;;;;;;;;;;9.50;1.00;;;;;;5029742;28;19953;-65
2021/06/01 01:52:41;;;;;;;;;;;9.40;1.00;;;;;;5029371;28;19913;-65
2021/06/01 01:55:07;;;;;;;;;;;9.40;1.00;;;;;;5028828;28;19910;-65
2021/06/01 01:57:34;;;;;;;;;;;9.40;1.00;;;;;;5029357;28;19917;-65
2021/06/01 02:00:00;;;;;;;;;;;9.30;1.00;;;;;;5029230;28;20530;-66
2021/06/01 02:02:25;;;;;;;;;;;9.30;1.00;;;;;;5028061;28;20047;-65
2021/06/01 02:04:51;;;;;;;;;;;9.40;1.00;;;;;;5028335;28;20046;-65
2021/06/01 02:07:17;;;;;;;;;;;9.30;1.00;;;;;;5028505;28;19919;-65
2021/06/01 02:09:42;;;;;;;;;;;9.30;1.00;;;;;;5028967;28;19914;-65
2021/06/01 02:12:08;;;;;;;;;;;9.20;1.00;;;;;;5030478;28;19927;-65
2021/06/01 02:14:34;;;;;;;;;;;9.20;1.00;;;;;;5029704;28;20062;-65
2021/06/01 02:16:59;;;;;;;;;;;9.20;1.00;;;;;;5029777;28;20353;-65
2021/06/01 02:19:26;;;;;;;;;;;9.20;1.00;;;;;;5029502;28;20003;-65
2021/06/01 02:24:36;;;;;;;;;;;9.20;1.00;;;;;;5029949;28;20361;-65
2021/06/01 02:27:14;;;;;;;;;;;9.10;1.00;;;;;;5029398;28;19913;-66
2021/06/01 02:29:39;;;;;;;;;;;9.10;1.00;;;;;;5028259;28;19909;-66
2021/06/01 02:32:06;;;;;;;;;;;9.10;1.00;;;;;;5029307;28;19910;-66
2021/06/01 02:34:32;;;;;;;;;;;9.10;1.00;;;;;;5029490;28;19909;-66
2021/06/01 02:36:57;;;;;;;;;;;9.00;1.00;;;;;;5028813;28;20185;-66
2021/06/01 02:39:25;;;;;;;;;;;9.00;16.30;;;;;;5010853;28;19928;-66
2021/06/01 02:41:52;;;;;;;;;;;9.00;99.90;;;;;;5029104;28;20394;-66
2021/06/01 02:44:18;;;;;;;;;;;9.00;73.70;;;;;;5028493;28;19952;-66
2021/06/01 02:46:45;;;;;;;;;;;9.00;99.90;;;;;;5029012;28;20007;-66
2021/06/01 02:49:11;;;;;;;;;;;8.90;99.90;;;;;;5028409;28;19970;-66
2021/06/01 02:51:37;;;;;;;;;;;8.90;99.90;;;;;;5028865;28;20345;-66
2021/06/01 02:54:04;;;;;;;;;;;8.90;99.90;;;;;;5029254;28;20290;-66
2021/06/01 02:56:30;;;;;;;;;;;8.80;99.90;;;;;;5029396;28;20274;-66
2021/06/01 02:58:56;;;;;;;;;;;8.80;99.90;;;;;;5027762;28;19916;-66
2021/06/01 03:01:24;;;;;;;;;;;8.80;99.90;;;;;;5028592;28;19989;-66
2021/06/01 03:03:53;;;;;;;;;;;8.80;99.90;;;;;;5029321;28;20368;-66
2021/06/01 03:06:19;;;;;;;;;;;8.90;99.90;;;;;;5028551;28;19909;-66
2021/06/01 03:08:45;;;;;;;;;;;8.90;1.00;;;;;;5028689;28;19909;-66
2021/06/01 03:11:12;;;;;;;;;;;8.80;48.10;;;;;;5027789;28;20413;-66
2021/06/01 03:13:38;;;;;;;;;;;8.80;99.90;;;;;;5028635;28;19913;-66
2021/06/01 03:16:04;;;;;;;;;;;8.70;99.90;;;;;;5029586;28;20250;-66
2021/06/01 03:18:29;;;;;;;;;;;8.70;99.90;;;;;;5028578;28;19909;-66
2021/06/01 03:20:55;;;;;;;;;;;8.70;1.00;;;;;;5027245;28;19952;-66
2021/06/01 03:23:21;;;;;;;;;;;8.60;1.00;;;;;;5028808;28;20704;-66
2021/06/01 03:25:46;;;;;;;;;;;8.60;1.00;;;;;;5028991;28;20013;-66
2021/06/01 03:28:12;;;;;;;;;;;8.60;1.00;;;;;;5027523;28;19916;-66
2021/06/01 03:30:38;;;;;;;;;;;8.60;7.60;;;;;;5028137;28;19928;-66
2021/06/01 03:33:04;;;;;;;;;;;8.60;99.40;;;;;;5028010;28;19996;-66
2021/06/01 03:35:30;;;;;;;;;;;8.70;7.10;;;;;;5029345;28;19909;-66
2021/06/01 03:37:56;;;;;;;;;;;8.70;73.80;;;;;;5027595;28;19938;-66
2021/06/01 03:40:23;;;;;;;;;;;8.70;99.90;;;;;;5028350;28;19909;-66
2021/06/01 03:42:48;;;;;;;;;;;8.80;99.90;;;;;;5027354;28;19913;-66
2021/06/01 03:45:14;;;;;;;;;;;9.00;1.00;;;;;;5029066;28;19920;-66
2021/06/01 03:47:40;;;;;;;;;;;9.20;99.90;;;;;;5028354;28;20264;-66
2021/06/01 03:50:06;;;;;;;;;;;9.40;1.00;;;;;;5027709;28;20389;-66
2021/06/01 03:52:32;;;;;;;;;;;9.70;99.90;;;;;;5029457;28;19931;-66
2021/06/01 03:54:57;;;;;;;;;;;9.90;1.00;;;;;;5032537;28;19920;-66
2021/06/01 03:57:23;;;;;;;;;;;10.30;1.00;;;;;;5032250;28;19920;-66
2021/06/01 03:59:49;;;;;;;;;;;10.60;99.90;;;;;;5031160;28;19952;-66
2021/06/01 04:02:14;;;;;;;;;;;10.90;1.00;;;;;;5032425;28;19971;-66
2021/06/01 04:04:40;;;;;;;;;;;11.30;1.00;;;;;;5032335;28;19937;-66
2021/06/01 04:07:05;;;;;;;;;;;11.60;1.00;;;;;;5031475;28;19909;-66
2021/06/01 04:09:31;;;;;;;;;;;11.90;1.00;;;;;;5031153;28;20008;-66
2021/06/01 04:11:57;;;;;;;;;;;12.30;99.90;;;;;;5032143;28;19925;-66
2021/06/01 04:14:22;;;;;;;;;;;12.70;99.90;;;;;;5031861;28;19909;-66
2021/06/01 04:16:48;;;;;;;;;;;12.90;99.90;;;;;;5031976;28;19917;-66
2021/06/01 04:19:14;;;;;;;;;;;12.70;99.90;;;;;;5031207;28;20011;-66
2021/06/01 04:21:42;;;;;;;;;;;12.50;99.90;;;;;;5031450;28;19917;-66
2021/06/01 04:24:08;;;;;;;;;;;12.70;99.90;;;;;;5031959;28;19917;-66
2021/06/01 04:26:33;;;;;;;;;;;13.10;99.90;;;;;;5031730;28;20016;-66
2021/06/01 04:28:59;;;;;;;;;;;13.60;99.90;;;;;;5027623;28;20020;-66
2021/06/01 04:31:24;;;;;;;;;;;14.40;99.90;;;;;;5024500;28;19909;-66
2021/06/01 04:33:50;;;;;;;;;;;15.00;99.90;;;;;;5030758;28;19909;-66
2021/06/01 04:36:15;;;;;;;;;;;15.60;99.90;;;;;;5031455;28;19941;-66
2021/06/01 04:38:41;;;;;;;;;;;16.10;99.90;;;;;;5031550;28;19919;-66
2021/06/01 04:41:06;;;;;;;;;;;16.50;99.90;;;;;;5030781;28;19925;-66
2021/06/01 04:43:32;;;;;;;;;;;17.00;99.90;;;;;;5030135;28;20372;-66
2021/06/01 04:45:57;;;;;;;;;;;17.40;99.90;;;;;;5031348;28;19909;-66
2021/06/01 04:48:23;;;;;;;;;;;17.70;99.90;;;;;;5031331;28;19979;-66
2021/06/01 04:50:49;;;;;;;;;;;18.10;99.90;;;;;;5030272;28;19932;-66
2021/06/01 04:53:14;;;;;;;;;;;18.30;99.90;;;;;;5031204;28;19967;-67
2021/06/01 04:55:40;;;;;;;;;;;18.60;99.90;;;;;;5031676;28;20398;-66
2021/06/01 04:58:06;;;;;;;;;;;19.00;99.90;;;;;;5030734;28;20199;-66
2021/06/01 05:00:31;;;;;;;;;;;19.80;99.90;;;;;;5030399;28;20255;-67
2021/06/01 05:02:57;;;;;;;;;;;19.90;99.90;;;;;;5030991;28;20266;-66
2021/06/01 05:05:23;;;;;;;;;;;20.70;99.90;;;;;;5031371;28;20016;-67
2021/06/01 05:07:48;;;;;;;;;;;21.00;99.90;;;;;;5030564;28;19909;-67
2021/06/01 05:10:14;;;;;;;;;;;21.30;99.90;;;;;;5030635;28;19924;-67
2021/06/01 05:12:39;;;;;;;;;;;21.70;99.90;;;;;;5030118;28;20012;-67
2021/06/01 05:15:07;;;;;;;;;;;21.70;99.90;;;;;;5031120;28;19956;-66
2021/06/01 05:17:32;;;;;;;;;;;22.00;99.90;;;;;;5031028;28;19913;-67
2021/06/01 05:19:58;;;;;;;;;;;22.60;99.90;;;;;;5030317;28;20238;-66
2021/06/01 05:22:23;;;;;;;;;;;22.60;99.90;;;;;;5030415;28;19937;-68
2021/06/01 05:24:49;;;;;;;;;;;22.50;99.90;;;;;;5031119;28;19944;-67
2021/06/01 05:27:14;;;;;;;;;;;22.90;99.90;;;;;;5030457;28;19920;-68
2021/06/01 05:29:44;;;;;;;;;;;23.00;99.90;;;;;;5029160;28;19909;-68
2021/06/01 05:34:38;;;;;;;;;;;23.60;99.90;;;;;;5030622;28;19913;-66
2021/06/01 05:37:04;;;;;;;;;;;23.60;97.90;;;;;;5029922;28;19917;-66
2021/06/01 05:39:29;;;;;;;;;;;24.10;96.60;;;;;;5027328;28;19916;-66
2021/06/01 05:41:55;;;;;;;;;;;24.30;94.20;;;;;;5029903;28;19944;-67
2021/06/01 05:44:20;;;;;;;;;;;24.60;92.30;;;;;;5029488;28;20075;-69
2021/06/01 05:46:46;;;;;;;;;;;25.30;91.10;;;;;;5030465;28;20309;-68
2021/06/01 05:49:12;;;;;;;;;;;25.50;87.30;;;;;;5029785;28;20409;-67
2021/06/01 05:51:38;;;;;;;;;;;25.90;79.50;;;;;;5029955;28;19913;-67
2021/06/01 05:54:04;;;;;;;;;;;26.30;74.70;;;;;;5030427;28;19913;-68
2021/06/01 05:56:30;;;;;;;;;;;26.60;69.20;;;;;;5030569;28;19913;-67
2021/06/01 05:58:55;;;;;;;;;;;27.30;67.30;;;;;;5028704;28;19962;-67
2021/06/01 06:01:21;;;;;;;;;;;27.70;62.10;;;;;;5029541;28;20019;-68
2021/06/01 06:03:46;;;;;;;;;;;27.20;55.50;;;;;;5029530;28;19935;-67
2021/06/01 06:06:13;;;;;;;;;;;27.60;52.30;;;;;;5029755;28;20030;-68
2021/06/01 06:08:38;;;;;;;;;;;27.60;48.70;;;;;;5029747;28;19963;-67
2021/06/01 06:11:04;;;;;;;;;;;27.20;42.00;;;;;;5029149;28;19996;-65
2021/06/01 06:13:29;;;;;;;;;;;27.20;38.60;;;;;;5029330;28;19909;-67
2021/06/01 06:15:55;;;;;;;;;;;27.40;36.40;;;;;;5029874;28;19909;-67
2021/06/01 06:18:28;;;;;;;;;;;27.90;34.60;;;;;;5029475;28;20385;-67
2021/06/01 06:20:58;;;;;;;;;;;28.40;32.20;;;;;;5029164;28;19917;-68
2021/06/01 06:23:24;;;;;;;;;;;28.20;28.30;;;;;;5029403;28;19920;-68
2021/06/01 06:25:49;;;;;;;;;;;28.20;25.30;;;;;;5029495;28;20012;-68
2021/06/01 06:28:14;;;;;;;;;;;28.10;21.60;;;;;;5027858;28;19966;-68
2021/06/01 06:30:40;;;;;;;;;;;27.80;19.10;;;;;;5028714;28;20026;-68
2021/06/01 06:33:06;;;;;;;;;;;28.40;18.10;;;;;;5029159;28;19920;-62
2021/06/01 06:35:31;;;;;;;;;;;28.60;17.00;;;;;;5029634;28;20332;-63
2021/06/01 06:37:56;;;;;;;;;;;29.10;15.50;;;;;;5028875;28;19952;-67
2021/06/01 06:40:22;;;;;;;;;;;29.00;13.10;;;;;;5028730;28;20456;-66
2021/06/01 06:42:48;;;;;;;;;;;29.00;10.50;;;;;;5027591;28;19920;-66
2021/06/01 06:45:15;;;;;;;;;;;29.20;8.50;;;;;;5029294;28;19920;-66
2021/06/01 06:50:13;;;;;;;;;;;29.50;4.30;;;;;;5028580;28;19984;-68
2021/06/01 06:52:39;;;;;;;;;;;29.40;2.20;;;;;;5029010;28;19935;-65
2021/06/01 06:55:07;;;;;;;;;;;29.50;1.00;;;;;;5028146;28;20342;-67
2021/06/01 06:57:33;;;;;;;;;;;29.80;1.00;;;;;;5028900;28;20354;-66
2021/06/01 06:59:58;;;;;;;;;;;30.00;1.00;;;;;;5028322;28;19913;-66
2021/06/01 07:02:25;;;;;;;;;;;29.90;1.00;;;;;;5028778;28;20365;-65
2021/06/01 07:04:50;;;;;;;;;;;29.90;1.00;;;;;;5029457;28;19917;-67
2021/06/01 07:07:16;;;;;;;;;;;30.00;1.00;;;;;;5028351;28;20382;-65
2021/06/01 07:09:41;;;;;;;;;;;29.00;1.00;;;;;;5027964;28;20012;-67
2021/06/01 07:12:07;;;;;;;;;;;29.60;1.00;;;;;;5028291;28;19921;-68
2021/06/01 07:14:44;;;;;;;;;;;30.50;1.00;;;;;;5028198;28;19917;-67
2021/06/01 07:17:09;;;;;;;;;;;30.70;1.00;;;;;;5028909;28;19943;-64
2021/06/01 07:19:35;;;;;;;;;;;30.80;1.00;;;;;;5027874;28;19995;-65
2021/06/01 07:22:00;;;;;;;;;;;31.10;1.00;;;;;;5027747;28;19928;-66
2021/06/01 07:24:26;;;;;;;;;;;31.50;1.00;;;;;;5028399;28;20032;-68
2021/06/01 07:26:51;;;;;;;;;;;31.70;1.00;;;;;;5027121;28;19909;-67
2021/06/01 07:29:17;;;;;;;;;;;31.50;1.00;;;;;;5027037;28;20046;-66
2021/06/01 07:31:43;;;;;;;;;;;31.10;1.00;;;;;;5028906;28;19915;-69
2021/06/01 07:34:08;;;;;;;;;;;31.50;1.00;;;;;;5027966;28;19928;-66
2021/06/01 07:36:35;;;;;;;;;;;32.20;1.00;;;;;;5028380;28;19996;-66
2021/06/01 07:39:01;;;;;;;;;;;32.40;1.00;;;;;;5027051;28;19913;-66
2021/06/01 07:41:26;;;;;;;;;;;32.20;1.00;;;;;;5027025;28;20442;-66
2021/06/01 07:43:52;;;;;;;;;;;31.70;1.00;;;;;;5027709;28;19963;-66
2021/06/01 07:46:18;;;;;;;;;;;31.60;1.00;;;;;;5028531;28;19916;-66
2021/06/01 07:48:43;;;;;;;;;;;31.50;1.00;;;;;;5027617;28;20328;-66
2021/06/01 07:51:12;;;;;;;;;;;31.10;1.00;;;;;;5006131;28;19960;-66
2021/06/01 07:53:38;;;;;;;;;;;31.10;1.00;;;;;;5023643;28;20267;-66
2021/06/01 07:56:07;;;;;;;;;;;30.80;1.00;;;;;;5026327;28;19960;-66
2021/06/01 07:58:32;;;;;;;;;;;30.50;1.00;;;;;;5027424;28;19913;-66
2021/06/01 08:00:58;;;;;;;;;;;29.80;1.00;;;;;;5027095;28;19956;-66
2021/06/01 08:03:26;;;;;;;;;;;29.40;1.00;;;;;;5027705;28;19952;-66
2021/06/01 08:05:52;;;;;;;;;;;29.70;1.00;;;;;;5027627;28;19979;-66
2021/06/01 08:08:18;;;;;;;;;;;30.70;1.00;;;;;;5027591;28;19917;-66
2021/06/01 08:10:43;;;;;;;;;;;32.00;1.00;;;;;;5027699;28;19952;-66
2021/06/01 08:13:09;;;;;;;;;;;32.80;1.00;;;;;;5027465;28;20338;-66
2021/06/01 08:15:34;;;;;;;;;;;32.20;1.00;;;;;;5028198;28;19967;-66
2021/06/01 08:18:02;;;;;;;;;;;31.40;1.00;;;;;;5028160;28;19917;-66
2021/06/01 08:20:41;;;;;;;;;;;31.40;1.00;;;;;;5027482;28;19920;-66
2021/06/01 08:23:07;;;;;;;;;;;31.40;1.00;;;;;;5027788;28;19963;-66
2021/06/01 08:25:32;;;;;;;;;;;32.10;1.00;;;;;;5028218;28;19945;-66
2021/06/01 08:27:58;;;;;;;;;;;32.70;1.00;;;;;;5026978;28;19913;-66
2021/06/01 08:30:24;;;;;;;;;;;32.50;1.00;;;;;;5027393;28;19909;-66
2021/06/01 08:32:49;;;;;;;;;;;32.30;1.00;;;;;;5028153;28;20000;-66
2021/06/01 08:35:15;;;;;;;;;;;32.00;1.00;;;;;;5027754;28;19957;-66
2021/06/01 08:37:41;;;;;;;;;;;31.80;1.00;;;;;;5027030;28;19948;-66
2021/06/01 08:40:07;;;;;;;;;;;30.90;1.00;;;;;;5031557;28;19928;-66
2021/06/01 08:42:36;;;;;;;;;;;31.00;1.00;;;;;;5031790;28;20042;-66
2021/06/01 08:45:03;;;;;;;;;;;31.50;1.00;;;;;;5031639;28;20003;-66
2021/06/01 08:47:29;;;;;;;;;;;31.80;1.00;;;;;;5031490;28;19913;-66
2021/06/01 08:49:57;;;;;;;;;;;31.80;1.00;;;;;;5031258;28;19916;-66
2021/06/01 08:52:23;;;;;;;;;;;32.20;1.00;;;;;;5031686;28;19970;-66
2021/06/01 08:54:49;;;;;;;;;;;31.90;1.00;;;;;;5032160;28;20027;-66
2021/06/01 08:57:14;;;;;;;;;;;32.10;1.00;;;;;;5031452;28;20235;-66
2021/06/01 08:59:41;;;;;;;;;;;32.00;1.00;;;;;;5029837;28;19916;-66
2021/06/01 09:02:07;;;;;;;;;;;31.20;1.00;;;;;;5030912;28;19916;-66
2021/06/01 09:04:51;;;;;;;;;;;30.10;1.00;;;;;;5031556;28;19936;-66
2021/06/01 09:07:26;;;;;;;;;;;30.30;1.00;;;;;;5030668;28;19916;-66
2021/06/01 09:10:13;;;;;;;;;;;31.70;1.00;;;;;;5030648;28;20263;-66
2021/06/01 09:13:03;;;;;;;;;;;32.70;1.00;;;;;;5029799;28;19952;-66
2021/06/01 09:15:47;;;;;;;;;;;33.40;1.00;;;;;;5030767;28;19921;-66
2021/06/01 09:21:14;;;;;;;;;;;34.30;1.00;;;;;;5030263;28;19932;-66
2021/06/01 09:23:48;;;;;;;;;;;31.80;1.00;;;;;;5030229;28;19914;-66
2021/06/01 09:26:34;;;;;;;;;;;30.90;1.00;;;;;;5030876;28;19909;-66
2021/06/01 09:28:59;;;;;;;;;;;30.40;1.00;;;;;;5029299;28;19913;-66
2021/06/01 09:31:25;;;;;;;;;;;31.20;1.00;;;;;;5029985;28;20119;-66
2021/06/01 09:33:51;;;;;;;;;;;31.80;1.00;;;;;;5030275;28;19909;-66
2021/06/01 09:36:21;;;;;;;;;;;31.70;1.00;;;;;;5030422;28;19964;-66
2021/06/01 09:38:47;;;;;;;;;;;31.50;1.00;;;;;;5030116;28;19909;-66
2021/06/01 09:41:14;;;;;;;;;;;31.90;1.00;;;;;;5029778;28;19987;-66
2021/06/01 09:43:56;;;;;;;;;;;32.30;1.00;;;;;;5029160;28;20006;-66
2021/06/01 09:46:23;;;;;;;;;;;32.60;1.00;;;;;;5030747;28;20282;-66
2021/06/01 09:48:49;;;;;;;;;;;33.40;1.00;;;;;;5030661;28;19917;-66
2021/06/01 09:51:45;;;;;;;;;;;33.50;1.00;;;;;;5028704;28;19909;-66
2021/06/01 09:54:38;;;;;;;;;;;33.00;1.00;;;;;;5017494;28;19916;-66
2021/06/01 09:57:15;;;;;;;;;;;32.70;1.00;;;;;;5030743;28;19913;-66
2021/06/01 09:59:41;;;;;;;;;;;33.30;1.00;;;;;;5028525;28;19944;-67
2021/06/01 10:02:26;;;;;;;;;;;32.90;1.00;;;;;;5030285;28;19909;-67
2021/06/01 10:05:09;;;;;;;;;;;32.50;1.00;;;;;;5029976;28;19913;-66
2021/06/01 10:07:34;;;;;;;;;;;32.50;1.00;;;;;;5029594;28;19916;-66
2021/06/01 10:10:02;;;;;;;;;;;32.70;1.00;;;;;;5029328;28;19921;-66
2021/06/01 10:12:28;;;;;;;;;;;33.10;1.00;;;;;;5029411;28;19913;-66
2021/06/01 10:14:53;;;;;;;;;;;32.30;1.00;;;;;;5030929;28;20282;-66
2021/06/01 10:17:19;;;;;;;;;;;32.30;1.00;;;;;;5029861;28;19913;-66
2021/06/01 10:19:44;;;;;;;;;;;32.50;1.00;;;;;;5029079;28;19916;-66
2021/06/01 10:22:10;;;;;;;;;;;31.70;1.00;;;;;;5029425;28;19916;-66
2021/06/01 10:24:37;;;;;;;;;;;32.50;1.00;;;;;;5030003;28;19909;-66
2021/06/01 10:27:03;;;;;;;;;;;32.80;1.00;;;;;;5030006;28;20315;-66
2021/06/01 10:29:29;;;;;;;;;;;32.00;1.00;;;;;;5028326;28;20016;-66
2021/06/01 10:31:54;;;;;;;;;;;31.50;1.00;;;;;;5030388;28;19932;-66
2021/06/01 10:34:20;;;;;;;;;;;31.20;1.00;;;;;;5029909;28;20281;-66
2021/06/01 10:50:35;;;;;;;;;;;30.10;1.00;;;;;;5009525;28;20037;-67
2021/06/01 10:53:13;;;;;;;;;;;30.40;1.00;;;;;;5009231;28;20422;-67
2021/06/01 10:58:22;;;;;;;;;;;30.90;1.00;;;;;;5008905;28;19940;-67
2021/06/01 11:03:15;;;;;;;;;;;29.90;1.00;;;;;;5025418;28;20246;-66
2021/06/01 11:05:56;;;;;;;;;;;29.80;1.00;;;;;;5028774;28;19909;-66
2021/06/01 11:08:37;;;;;;;;;;;29.50;1.00;;;;;;5029101;28;19916;-66
2021/06/01 11:11:21;;;;;;;;;;;29.40;1.00;;;;;;5008411;28;19917;-66
2021/06/01 11:13:46;;;;;;;;;;;29.30;1.00;;;;;;5008263;28;19914;-66
2021/06/01 11:16:12;;;;;;;;;;;29.50;1.00;;;;;;5009288;28;19927;-66
2021/06/01 11:18:43;;;;;;;;;;;29.70;1.00;;;;;;5009115;28;19913;-66
2021/06/01 11:21:19;;;;;;;;;;;29.70;1.00;;;;;;5008105;28;19914;-67
2021/06/01 11:24:13;;;;;;;;;;;28.80;1.00;;;;;;5009660;28;19913;-66
2021/06/01 11:35:26;;;;;;;;;;;26.20;1.00;;;;;;5029303;28;19928;-65
2021/06/01 11:37:58;;;;;;;;;;;26.60;1.00;;;;;;5027368;28;19971;-66
2021/06/01 11:40:52;;;;;;;;;;;26.60;1.00;;;;;;5028173;28;19931;-65
2021/06/01 11:43:18;;;;;;;;;;;26.50;1.00;;;;;;5027690;28;20008;-65
2021/06/01 11:45:45;;;;;;;;;;;26.00;1.00;;;;;;5028157;28;19913;-65
2021/06/01 11:51:11;;;;;;;;;;;24.30;1.00;;;;;;5027578;28;19917;-66
2021/06/01 11:53:43;;;;;;;;;;;23.70;1.00;;;;;;5027904;28;20370;-66
2021/06/01 11:56:09;;;;;;;;;;;23.40;1.00;;;;;;5028571;28;19909;-67
2021/06/01 12:04:32;;;;;;;;;;;22.80;1.00;;;;;;5023454;28;20570;-65
2021/06/01 12:18:14;;;;;;;;;;;21.20;1.00;;;;;;5031887;28;19943;-66
2021/06/01 12:20:39;;;;;;;;;;;21.30;1.00;;;;;;5030795;28;20086;-66
2021/06/01 12:23:24;;;;;;;;;;;21.50;1.00;;;;;;5031268;28;20060;-66
2021/06/01 12:26:02;;;;;;;;;;;21.40;1.00;;;;;;5031511;28;19920;-66
2021/06/01 12:31:32;;;;;;;;;;;21.30;1.00;;;;;;4946200;29;19915;-65
2021/06/01 12:33:58;;;;;;;;;;;21.20;1.00;;;;;;4949543;29;19997;-65
2021/06/01 12:37:09;;;;;;;;;;;21.20;1.00;;;;;;4985318;28;19917;-67
2021/06/01 13:12:06;;;;;;;;;;;21.20;1.00;;;;;;5029617;28;19932;-66
2021/06/01 13:21:07;;;;;;;;;;;21.80;1.00;;;;;;5029645;28;19943;-66
2021/06/01 13:24:04;;;;;;;;;;;21.90;1.00;;;;;;5030478;28;19925;-66
2021/06/01 13:32:16;;;;;;;;;;;21.90;1.00;;;;;;5029846;28;19914;-66
2021/06/01 13:56:11;;;;;;;;;;;21.60;1.00;;;;;;5030387;28;19910;-66
2021/06/01 14:09:40;;;;;;;;;;;21.70;1.00;;;;;;5029312;28;20040;-66
2021/06/01 14:20:49;;;;;;;;;;;21.80;1.00;;;;;;5027056;28;19937;-66
2021/06/01 14:39:57;;;;;;;;;;;22.00;1.00;;;;;;5028733;28;19913;-67
2021/06/01 15:09:44;;;;;;;;;;;21.80;1.00;;;;;;5028011;28;20264;-67
2021/06/01 15:28:41;;;;;;;;;;;21.90;1.00;;;;;;5028623;28;20004;-66
2021/06/01 15:28:50;;;;;;;;;;;21.80;1.00;;;;;;5027577;28;19913;-67
2021/06/01 15:31:42;;;;;;;;;;;21.80;1.00;;;;;;5023576;28;20003;-66
2021/06/01 17:06:54;;;;;;;;;;;21.50;1.00;;;;;;5030659;28;19909;-67
2021/06/01 17:11:56;;;;;;;;;;;21.50;1.00;;;;;;5030965;28;19917;-67
2021/06/01 17:14:24;;;;;;;;;;;21.50;1.00;;;;;;5029447;28;19932;-66
2021/06/01 17:16:53;;;;;;;;;;;21.50;1.00;;;;;;5031160;28;19909;-67
2021/06/01 17:20:32;;;;;;;;;;;21.40;1.00;;;;;;5030495;28;19909;-66
2021/06/01 17:35:53;;;;;;;;;;;21.10;1.00;;;;;;5030200;28;19964;-66
2021/06/01 17:38:19;;;;;;;;;;;21.00;1.00;;;;;;5030523;28;19909;-65
2021/06/01 17:40:45;;;;;;;;;;;21.00;1.00;;;;;;5029519;28;19916;-66
2021/06/01 17:43:11;;;;;;;;;;;20.90;1.00;;;;;;5029386;28;19932;-66
2021/06/01 17:45:38;;;;;;;;;;;20.90;1.00;;;;;;5030909;28;19909;-66
2021/06/01 17:48:08;;;;;;;;;;;20.80;1.00;;;;;;5029908;28;19909;-66
2021/06/01 17:50:38;;;;;;;;;;;20.80;1.00;;;;;;5029573;28;19914;-66
2021/06/01 17:53:04;;;;;;;;;;;20.80;1.00;;;;;;5029240;28;20003;-66
2021/06/01 17:55:30;;;;;;;;;;;20.70;1.00;;;;;;5030551;28;19952;-67
2021/06/01 17:57:57;;;;;;;;;;;20.70;1.00;;;;;;5028415;28;19913;-67
2021/06/01 18:00:22;;;;;;;;;;;20.60;1.00;;;;;;5027675;28;19916;-67
2021/06/01 18:02:49;;;;;;;;;;;20.60;1.00;;;;;;5026600;28;19914;-66
2021/06/01 18:05:15;;;;;;;;;;;20.50;1.00;;;;;;5029923;28;20027;-67
2021/06/01 19:50:47;;;;;;;;;;;16.90;1.00;;;;;;5027614;28;19915;-67
2021/06/01 19:53:14;;;;;;;;;;;16.90;1.00;;;;;;5028543;28;20372;-67
2021/06/01 19:55:39;;;;;;;;;;;16.80;1.00;;;;;;5026750;28;19909;-68
2021/06/01 19:58:05;;;;;;;;;;;16.70;1.00;;;;;;5027815;28;19913;-67
2021/06/01 20:00:30;;;;;;;;;;;16.70;1.00;;;;;;5026344;28;19965;-67
2021/06/01 20:02:56;;;;;;;;;;;16.60;1.00;;;;;;5027824;28;19917;-69
2021/06/01 20:05:23;;;;;;;;;;;16.50;1.00;;;;;;5028375;28;20026;-69
2021/06/01 20:07:48;;;;;;;;;;;16.40;1.00;;;;;;5028091;28;19935;-67
2021/06/01 20:10:15;;;;;;;;;;;16.30;1.00;;;;;;5027545;28;20003;-67
2021/06/01 20:12:40;;;;;;;;;;;16.30;1.00;;;;;;5027731;28;19946;-67
2021/06/01 20:15:07;;;;;;;;;;;16.30;1.00;;;;;;5026671;28;20007;-67
2021/06/01 20:17:40;;;;;;;;;;;16.20;1.00;;;;;;5028453;28;19913;-66
2021/06/01 20:20:07;;;;;;;;;;;16.10;1.00;;;;;;5041416;28;19960;-66
2021/06/01 20:22:36;;;;;;;;;;;16.00;1.00;;;;;;5047286;28;19955;-67
2021/06/01 20:25:02;;;;;;;;;;;15.90;1.00;;;;;;5047647;28;19920;-67
2021/06/01 20:27:28;;;;;;;;;;;15.90;1.00;;;;;;5040538;28;20011;-67
2021/06/01 20:29:58;;;;;;;;;;;15.80;1.00;;;;;;5025843;28;20421;-67
2021/06/01 20:35:16;;;;;;;;;;;15.70;2.60;;;;;;5026550;28;20348;-66
2021/06/01 20:37:42;;;;;;;;;;;15.60;4.00;;;;;;5031323;28;20484;-66
2021/06/01 20:40:08;;;;;;;;;;;15.60;5.70;;;;;;5031668;28;20012;-66
2021/06/01 20:42:34;;;;;;;;;;;15.50;7.70;;;;;;5026788;28;20339;-66
2021/06/01 20:45:03;;;;;;;;;;;15.40;9.00;;;;;;5015832;28;20004;-66
2021/06/01 20:47:28;;;;;;;;;;;15.40;10.20;;;;;;5027630;28;19955;-66
2021/06/01 20:49:54;;;;;;;;;;;15.30;11.60;;;;;;5032252;28;19967;-66
2021/06/01 20:52:21;;;;;;;;;;;15.30;13.40;;;;;;5031482;28;19913;-67
2021/06/01 20:54:46;;;;;;;;;;;15.20;15.40;;;;;;5031237;28;20326;-66
2021/06/01 20:57:13;;;;;;;;;;;15.10;17.40;;;;;;5031842;28;19917;-66
2021/06/01 20:59:39;;;;;;;;;;;15.00;19.10;;;;;;5030299;28;19909;-66
2021/06/01 21:02:05;;;;;;;;;;;15.00;21.50;;;;;;5031213;28;20549;-67
2021/06/01 21:04:31;;;;;;;;;;;15.00;23.30;;;;;;5031525;28;19917;-67
2021/06/01 21:06:57;;;;;;;;;;;14.90;25.30;;;;;;5031156;28;19913;-67
2021/06/01 21:09:23;;;;;;;;;;;14.90;28.00;;;;;;5030459;28;19963;-66
2021/06/01 21:11:51;;;;;;;;;;;14.80;29.30;;;;;;5031576;28;19974;-66
2021/06/01 21:14:16;;;;;;;;;;;14.80;31.20;;;;;;5030237;28;20304;-68
2021/06/01 21:16:44;;;;;;;;;;;14.70;33.90;;;;;;5031826;28;19913;-66
2021/06/01 21:19:10;;;;;;;;;;;14.60;36.30;;;;;;5030787;28;20058;-67
2021/06/01 21:21:36;;;;;;;;;;;14.60;37.90;;;;;;5030952;28;20102;-66
2021/06/01 21:24:02;;;;;;;;;;;14.60;40.40;;;;;;5030550;28;19921;-66
2021/06/01 21:26:28;;;;;;;;;;;14.50;40.80;;;;;;5031324;28;19916;-66
2021/06/01 21:28:54;;;;;;;;;;;14.50;43.10;;;;;;5029738;28;20090;-66
2021/06/01 21:31:21;;;;;;;;;;;14.40;44.80;;;;;;5030830;28;19909;-66
2021/06/01 21:33:48;;;;;;;;;;;14.40;45.80;;;;;;5030992;28;20469;-66
2021/06/01 21:36:15;;;;;;;;;;;14.40;47.60;;;;;;5030599;28;20023;-66